sensor_id;sensor_type;location;lat;lon;timestamp;P1;durP1;ratioP1;P2;durP2;ratioP2
9720;SDS011;4899;42.644;23.366;2022-10-16T11:12:34;3.23;;;2.47;;
9720;SDS011;4899;42.644;23.366;2022-10-16T11:15:10;2.37;;;2.17;;
9720;SDS011;4899;42.644;23.366;2022-10-16T11:17:41;3.50;;;2.10;;
9720;SDS011;4899;42.644;23.366;2022-10-16T11:20:12;2.70;;;2.30;;
9720;SDS011;4899;42.644;23.366;2022-10-16T11:22:44;3.00;;;2.03;;
9720;SDS011;4899;42.644;23.366;2022-10-16T11:25:16;8.87;;;2.57;;
9720;SDS011;4899;42.644;23.366;2022-10-16T11:27:49;3.00;;;2.50;;
9720;SDS011;4899;42.644;23.366;2022-10-16T11:30:21;2.33;;;2.13;;
9720;SDS011;4899;42.644;23.366;2022-10-16T11:32:53;3.80;;;2.67;;
9720;SDS011;4899;42.644;23.366;2022-10-16T11:35:32;3.97;;;2.67;;
9720;SDS011;4899;42.644;23.366;2022-10-16T11:38:09;2.95;;;2.65;;
9720;SDS011;4899;42.644;23.366;2022-10-16T11:40:42;2.95;;;2.65;;
9720;SDS011;4899;42.644;23.366;2022-10-16T11:43:15;7.22;;;3.45;;
9720;SDS011;4899;42.644;23.366;2022-10-16T11:45:49;7.60;;;2.85;;
9720;SDS011;4899;42.644;23.366;2022-10-16T11:48:21;2.70;;;2.50;;
9720;SDS011;4899;42.644;23.366;2022-10-16T11:50:54;2.35;;;2.25;;
9720;SDS011;4899;42.644;23.366;2022-10-16T11:53:24;2.45;;;2.25;;
9720;SDS011;4899;42.644;23.366;2022-10-16T11:56:05;2.10;;;2.00;;
9720;SDS011;4899;42.644;23.366;2022-10-16T11:58:33;3.13;;;2.05;;
9720;SDS011;4899;42.644;23.366;2022-10-16T12:01:07;2.90;;;2.50;;
9720;SDS011;4899;42.644;23.366;2022-10-16T12:03:45;4.28;;;2.63;;
9720;SDS011;4899;42.644;23.366;2022-10-16T12:06:23;2.47;;;2.28;;
9720;SDS011;4899;42.644;23.366;2022-10-16T12:08:57;2.50;;;2.20;;
9720;SDS011;4899;42.644;23.366;2022-10-16T12:11:32;2.22;;;2.13;;
9720;SDS011;4899;42.644;23.366;2022-10-16T12:14:18;3.45;;;2.25;;
9720;SDS011;4899;42.644;23.366;2022-10-16T12:16:50;2.22;;;2.08;;
9720;SDS011;4899;42.644;23.366;2022-10-16T12:19:19;2.58;;;2.38;;
9720;SDS011;4899;42.644;23.366;2022-10-16T12:21:47;3.38;;;2.70;;
9720;SDS011;4899;42.644;23.366;2022-10-16T12:24:20;3.67;;;2.50;;
9720;SDS011;4899;42.644;23.366;2022-10-16T12:26:54;2.90;;;2.28;;
9720;SDS011;4899;42.644;23.366;2022-10-16T12:29:32;3.65;;;3.10;;
9720;SDS011;4899;42.644;23.366;2022-10-16T12:32:02;2.63;;;2.42;;
9720;SDS011;4899;42.644;23.366;2022-10-16T12:34:33;4.05;;;2.60;;
9720;SDS011;4899;42.644;23.366;2022-10-16T12:37:09;2.42;;;2.33;;
9720;SDS011;4899;42.644;23.366;2022-10-16T12:39:39;2.47;;;2.28;;
9720;SDS011;4899;42.644;23.366;2022-10-16T12:42:19;2.38;;;1.90;;
9720;SDS011;4899;42.644;23.366;2022-10-16T12:44:49;5.03;;;2.15;;
9720;SDS011;4899;42.644;23.366;2022-10-16T12:47:20;2.45;;;2.28;;
9720;SDS011;4899;42.644;23.366;2022-10-16T12:49:49;3.22;;;2.40;;
9720;SDS011;4899;42.644;23.366;2022-10-16T12:52:26;3.10;;;2.78;;
9720;SDS011;4899;42.644;23.366;2022-10-16T12:54:55;2.65;;;2.45;;
9720;SDS011;4899;42.644;23.366;2022-10-16T12:57:30;3.28;;;2.45;;
9720;SDS011;4899;42.644;23.366;2022-10-16T13:00:07;2.35;;;2.15;;
9720;SDS011;4899;42.644;23.366;2022-10-16T13:02:52;3.65;;;2.30;;
9720;SDS011;4899;42.644;23.366;2022-10-16T13:05:33;2.72;;;2.53;;
9720;SDS011;4899;42.644;23.366;2022-10-16T13:08:14;2.50;;;2.30;;
9720;SDS011;4899;42.644;23.366;2022-10-16T13:10:55;2.88;;;2.17;;
9720;SDS011;4899;42.644;23.366;2022-10-16T13:13:38;4.13;;;2.47;;
9720;SDS011;4899;42.644;23.366;2022-10-16T13:16:30;6.72;;;2.55;;
9720;SDS011;4899;42.644;23.366;2022-10-16T13:19:10;2.53;;;2.28;;
9720;SDS011;4899;42.644;23.366;2022-10-16T13:21:46;2.40;;;2.20;;
9720;SDS011;4899;42.644;23.366;2022-10-16T13:24:21;2.63;;;2.40;;
9720;SDS011;4899;42.644;23.366;2022-10-16T13:26:57;4.45;;;2.42;;
9720;SDS011;4899;42.644;23.366;2022-10-16T13:29:32;3.80;;;2.50;;
9720;SDS011;4899;42.644;23.366;2022-10-16T13:32:01;2.42;;;2.22;;
9720;SDS011;4899;42.644;23.366;2022-10-16T13:34:43;3.10;;;2.35;;
9720;SDS011;4899;42.644;23.366;2022-10-16T13:37:16;4.55;;;1.90;;
9720;SDS011;4899;42.644;23.366;2022-10-16T13:39:44;2.42;;;2.22;;
9720;SDS011;4899;42.644;23.366;2022-10-16T13:42:12;2.25;;;2.10;;
9720;SDS011;4899;42.644;23.366;2022-10-16T13:44:43;3.17;;;2.33;;
9720;SDS011;4899;42.644;23.366;2022-10-16T13:47:18;2.95;;;2.47;;
9720;SDS011;4899;42.644;23.366;2022-10-16T13:49:46;2.53;;;2.33;;
9720;SDS011;4899;42.644;23.366;2022-10-16T13:52:24;4.90;;;2.25;;
9720;SDS011;4899;42.644;23.366;2022-10-16T13:54:51;3.97;;;2.10;;
9720;SDS011;4899;42.644;23.366;2022-10-16T13:57:18;2.60;;;2.40;;
9720;SDS011;4899;42.644;23.366;2022-10-16T13:59:49;2.80;;;2.60;;
9720;SDS011;4899;42.644;23.366;2022-10-16T14:02:19;5.10;;;2.65;;
9720;SDS011;4899;42.644;23.366;2022-10-16T14:04:52;2.67;;;2.47;;
9720;SDS011;4899;42.644;23.366;2022-10-16T14:07:23;3.72;;;2.28;;
9720;SDS011;4899;42.644;23.366;2022-10-16T14:09:51;2.72;;;2.15;;
9720;SDS011;4899;42.644;23.366;2022-10-16T14:12:19;2.83;;;2.63;;
9720;SDS011;4899;42.644;23.366;2022-10-16T14:14:48;2.78;;;2.58;;
9720;SDS011;4899;42.644;23.366;2022-10-16T14:17:19;4.03;;;2.30;;
9720;SDS011;4899;42.644;23.366;2022-10-16T14:19:48;2.78;;;2.55;;
9720;SDS011;4899;42.644;23.366;2022-10-16T14:22:21;7.97;;;2.72;;
9720;SDS011;4899;42.644;23.366;2022-10-16T14:24:54;3.17;;;2.28;;
9720;SDS011;4899;42.644;23.366;2022-10-16T14:27:24;8.75;;;2.25;;
9720;SDS011;4899;42.644;23.366;2022-10-16T14:30:05;3.90;;;2.47;;
9720;SDS011;4899;42.644;23.366;2022-10-16T14:32:41;2.45;;;2.05;;
9720;SDS011;4899;42.644;23.366;2022-10-16T14:35:22;3.78;;;2.20;;
9720;SDS011;4899;42.644;23.366;2022-10-16T14:37:51;2.65;;;2.08;;
9720;SDS011;4899;42.644;23.366;2022-10-16T14:40:20;4.47;;;2.00;;
9720;SDS011;4899;42.644;23.366;2022-10-16T14:42:49;5.32;;;2.70;;
9720;SDS011;4899;42.644;23.366;2022-10-16T14:45:18;3.25;;;2.22;;
9720;SDS011;4899;42.644;23.366;2022-10-16T14:47:49;4.22;;;2.25;;
9720;SDS011;4899;42.644;23.366;2022-10-16T14:50:18;2.92;;;2.20;;
9720;SDS011;4899;42.644;23.366;2022-10-16T14:52:46;4.25;;;2.40;;
9720;SDS011;4899;42.644;23.366;2022-10-16T14:55:12;5.38;;;2.33;;
9720;SDS011;4899;42.644;23.366;2022-10-16T14:57:39;2.78;;;2.30;;
9720;SDS011;4899;42.644;23.366;2022-10-16T15:00:10;2.88;;;2.30;;
9720;SDS011;4899;42.644;23.366;2022-10-16T15:02:45;2.65;;;2.40;;
9720;SDS011;4899;42.644;23.366;2022-10-16T15:05:16;3.73;;;2.70;;
9720;SDS011;4899;42.644;23.366;2022-10-16T15:07:44;7.47;;;3.17;;
9720;SDS011;4899;42.644;23.366;2022-10-16T15:10:12;4.40;;;3.10;;
9720;SDS011;4899;42.644;23.366;2022-10-16T15:12:39;3.83;;;2.33;;
9720;SDS011;4899;42.644;23.366;2022-10-16T15:15:15;2.60;;;2.30;;
9720;SDS011;4899;42.644;23.366;2022-10-16T15:17:53;5.57;;;2.53;;
9720;SDS011;4899;42.644;23.366;2022-10-16T15:20:23;4.13;;;2.83;;
9720;SDS011;4899;42.644;23.366;2022-10-16T15:22:51;5.37;;;3.07;;
9720;SDS011;4899;42.644;23.366;2022-10-16T15:25:25;4.60;;;2.80;;
9720;SDS011;4899;42.644;23.366;2022-10-16T15:27:56;3.97;;;3.00;;
9720;SDS011;4899;42.644;23.366;2022-10-16T15:30:23;7.83;;;3.00;;
9720;SDS011;4899;42.644;23.366;2022-10-16T15:32:50;5.47;;;2.80;;
9720;SDS011;4899;42.644;23.366;2022-10-16T15:35:17;4.77;;;3.00;;
9720;SDS011;4899;42.644;23.366;2022-10-16T15:37:45;3.87;;;2.70;;
9720;SDS011;4899;42.644;23.366;2022-10-16T15:40:12;4.17;;;2.57;;
9720;SDS011;4899;42.644;23.366;2022-10-16T15:42:40;4.17;;;3.20;;
9720;SDS011;4899;42.644;23.366;2022-10-16T15:45:07;3.47;;;2.27;;
9720;SDS011;4899;42.644;23.366;2022-10-16T15:47:35;5.23;;;2.80;;
9720;SDS011;4899;42.644;23.366;2022-10-16T15:50:03;7.10;;;2.77;;
9720;SDS011;4899;42.644;23.366;2022-10-16T15:52:30;7.33;;;4.17;;
9720;SDS011;4899;42.644;23.366;2022-10-16T15:54:59;8.67;;;4.73;;
9720;SDS011;4899;42.644;23.366;2022-10-16T15:59:41;9.20;;;4.67;;
9720;SDS011;4899;42.644;23.366;2022-10-16T16:02:07;8.00;;;5.23;;
9720;SDS011;4899;42.644;23.366;2022-10-16T16:04:34;12.33;;;7.60;;
9720;SDS011;4899;42.644;23.366;2022-10-16T16:07:01;11.97;;;7.27;;
9720;SDS011;4899;42.644;23.366;2022-10-16T16:09:28;11.40;;;6.90;;
9720;SDS011;4899;42.644;23.366;2022-10-16T16:11:55;19.33;;;12.13;;
9720;SDS011;4899;42.644;23.366;2022-10-16T16:14:25;13.43;;;6.60;;
9720;SDS011;4899;42.644;23.366;2022-10-16T16:16:54;14.30;;;5.90;;
9720;SDS011;4899;42.644;23.366;2022-10-16T16:19:21;15.10;;;6.80;;
9720;SDS011;4899;42.644;23.366;2022-10-16T16:21:48;10.20;;;6.47;;
9720;SDS011;4899;42.644;23.366;2022-10-16T16:24:16;9.80;;;6.00;;
9720;SDS011;4899;42.644;23.366;2022-10-16T16:26:43;12.93;;;6.03;;
9720;SDS011;4899;42.644;23.366;2022-10-16T16:29:09;9.07;;;6.27;;
9720;SDS011;4899;42.644;23.366;2022-10-16T16:31:38;21.53;;;13.30;;
9720;SDS011;4899;42.644;23.366;2022-10-16T16:34:07;15.70;;;8.83;;
9720;SDS011;4899;42.644;23.366;2022-10-16T16:36:35;14.40;;;6.80;;
9720;SDS011;4899;42.644;23.366;2022-10-16T16:39:02;14.47;;;6.67;;
9720;SDS011;4899;42.644;23.366;2022-10-16T16:41:29;12.63;;;6.43;;
9720;SDS011;4899;42.644;23.366;2022-10-16T16:57:03;7.87;;;4.70;;
9720;SDS011;4899;42.644;23.366;2022-10-16T16:59:30;16.10;;;5.83;;
9720;SDS011;4899;42.644;23.366;2022-10-16T17:01:57;19.17;;;6.07;;
9720;SDS011;4899;42.644;23.366;2022-10-16T17:04:24;17.13;;;8.23;;
9720;SDS011;4899;42.644;23.366;2022-10-16T17:06:52;13.47;;;7.03;;
9720;SDS011;4899;42.644;23.366;2022-10-16T17:09:19;17.03;;;7.17;;
9720;SDS011;4899;42.644;23.366;2022-10-16T17:11:46;15.50;;;8.37;;
9720;SDS011;4899;42.644;23.366;2022-10-16T17:14:15;15.67;;;8.13;;
9720;SDS011;4899;42.644;23.366;2022-10-16T17:16:41;12.43;;;8.10;;
9720;SDS011;4899;42.644;23.366;2022-10-16T17:19:14;15.00;;;8.13;;
9720;SDS011;4899;42.644;23.366;2022-10-16T17:24:18;14.07;;;8.23;;
9720;SDS011;4899;42.644;23.366;2022-10-16T17:26:45;20.07;;;10.10;;
9720;SDS011;4899;42.644;23.366;2022-10-16T17:29:14;14.43;;;9.50;;
9720;SDS011;4899;42.644;23.366;2022-10-16T17:31:42;14.67;;;9.97;;
9720;SDS011;4899;42.644;23.366;2022-10-16T17:34:09;18.20;;;10.20;;
9720;SDS011;4899;42.644;23.366;2022-10-16T17:36:37;17.03;;;10.50;;
9720;SDS011;4899;42.644;23.366;2022-10-16T17:39:08;24.90;;;12.37;;
9720;SDS011;4899;42.644;23.366;2022-10-16T17:41:38;23.50;;;12.67;;
9720;SDS011;4899;42.644;23.366;2022-10-16T17:44:05;15.80;;;11.07;;
9720;SDS011;4899;42.644;23.366;2022-10-16T18:08:05;14.40;;;9.97;;
9720;SDS011;4899;42.644;23.366;2022-10-16T18:10:32;21.13;;;10.90;;
9720;SDS011;4899;42.644;23.366;2022-10-16T18:12:58;14.00;;;9.80;;
9720;SDS011;4899;42.644;23.366;2022-10-16T18:15:25;21.90;;;11.23;;
9720;SDS011;4899;42.644;23.366;2022-10-16T18:17:52;19.80;;;11.17;;
9720;SDS011;4899;42.644;23.366;2022-10-16T18:20:19;21.47;;;11.77;;
9720;SDS011;4899;42.644;23.366;2022-10-16T18:22:46;14.83;;;10.60;;
9720;SDS011;4899;42.644;23.366;2022-10-16T18:28:37;33.03;;;20.80;;
9720;SDS011;4899;42.644;23.366;2022-10-16T18:31:06;17.07;;;11.13;;
9720;SDS011;4899;42.644;23.366;2022-10-16T18:33:35;20.97;;;10.60;;
9720;SDS011;4899;42.644;23.366;2022-10-16T18:36:03;24.00;;;11.77;;
9720;SDS011;4899;42.644;23.366;2022-10-16T18:38:32;23.50;;;11.97;;
9720;SDS011;4899;42.644;23.366;2022-10-16T18:41:00;15.40;;;10.80;;
9720;SDS011;4899;42.644;23.366;2022-10-16T18:43:29;20.17;;;12.37;;
9720;SDS011;4899;42.644;23.366;2022-10-16T18:45:58;23.53;;;13.07;;
9720;SDS011;4899;42.644;23.366;2022-10-16T18:48:26;23.80;;;12.80;;
9720;SDS011;4899;42.644;23.366;2022-10-16T18:51:04;23.90;;;12.80;;
9720;SDS011;4899;42.644;23.366;2022-10-16T18:53:33;20.80;;;12.33;;
9720;SDS011;4899;42.644;23.366;2022-10-16T18:56:00;20.37;;;12.47;;
9720;SDS011;4899;42.644;23.366;2022-10-16T18:58:26;25.67;;;12.97;;
9720;SDS011;4899;42.644;23.366;2022-10-16T19:03:09;17.63;;;9.73;;
9720;SDS011;4899;42.644;23.366;2022-10-16T19:05:36;16.97;;;10.97;;
9720;SDS011;4899;42.644;23.366;2022-10-16T19:08:03;18.53;;;11.70;;
9720;SDS011;4899;42.644;23.366;2022-10-16T19:10:30;19.30;;;11.63;;
9720;SDS011;4899;42.644;23.366;2022-10-16T19:12:57;28.50;;;14.13;;
9720;SDS011;4899;42.644;23.366;2022-10-16T19:15:23;19.33;;;12.67;;
9720;SDS011;4899;42.644;23.366;2022-10-16T19:17:51;26.00;;;13.87;;
9720;SDS011;4899;42.644;23.366;2022-10-16T19:20:19;22.37;;;13.40;;
9720;SDS011;4899;42.644;23.366;2022-10-16T19:22:45;22.67;;;13.83;;
9720;SDS011;4899;42.644;23.366;2022-10-16T19:25:21;27.57;;;15.63;;
9720;SDS011;4899;42.644;23.366;2022-10-16T19:27:48;23.67;;;15.67;;
9720;SDS011;4899;42.644;23.366;2022-10-16T19:37:31;20.47;;;11.57;;
9720;SDS011;4899;42.644;23.366;2022-10-16T19:39:58;24.10;;;15.37;;
9720;SDS011;4899;42.644;23.366;2022-10-16T19:46:10;21.73;;;12.80;;
9720;SDS011;4899;42.644;23.366;2022-10-16T19:51:17;25.30;;;15.73;;
9720;SDS011;4899;42.644;23.366;2022-10-16T19:53:44;26.57;;;18.17;;
9720;SDS011;4899;42.644;23.366;2022-10-16T19:56:12;27.37;;;18.93;;
9720;SDS011;4899;42.644;23.366;2022-10-16T19:58:40;27.57;;;20.67;;
9720;SDS011;4899;42.644;23.366;2022-10-16T20:01:07;30.67;;;20.73;;
9720;SDS011;4899;42.644;23.366;2022-10-16T20:07:08;24.80;;;16.73;;
9720;SDS011;4899;42.644;23.366;2022-10-16T20:20:07;24.67;;;19.20;;
9720;SDS011;4899;42.644;23.366;2022-10-16T20:28:40;25.87;;;16.20;;
9720;SDS011;4899;42.644;23.366;2022-10-16T20:31:46;29.17;;;20.00;;
9720;SDS011;4899;42.644;23.366;2022-10-16T20:37:37;34.17;;;20.60;;
9720;SDS011;4899;42.644;23.366;2022-10-16T20:40:05;35.53;;;25.77;;
9720;SDS011;4899;42.644;23.366;2022-10-16T20:42:32;46.33;;;29.20;;
9720;SDS011;4899;42.644;23.366;2022-10-16T20:44:59;46.07;;;29.67;;
9720;SDS011;4899;42.644;23.366;2022-10-16T20:55:56;34.93;;;20.80;;
9720;SDS011;4899;42.644;23.366;2022-10-16T21:06:53;31.23;;;20.70;;
9720;SDS011;4899;42.644;23.366;2022-10-16T21:12:16;34.10;;;21.03;;
9720;SDS011;4899;42.644;23.366;2022-10-16T21:19:14;30.60;;;19.83;;
9720;SDS011;4899;42.644;23.366;2022-10-16T21:21:41;34.57;;;25.87;;
9720;SDS011;4899;42.644;23.366;2022-10-16T21:32:26;36.63;;;22.30;;
9720;SDS011;4899;42.644;23.366;2022-10-16T21:34:53;44.30;;;30.87;;
9720;SDS011;4899;42.644;23.366;2022-10-16T21:37:20;49.23;;;33.00;;
9720;SDS011;4899;42.644;23.366;2022-10-16T21:39:46;63.43;;;36.10;;
9720;SDS011;4899;42.644;23.366;2022-10-16T21:42:13;53.67;;;36.40;;
9720;SDS011;4899;42.644;23.366;2022-10-16T21:50:20;28.60;;;22.90;;
9720;SDS011;4899;42.644;23.366;2022-10-16T22:00:31;34.60;;;25.87;;
9720;SDS011;4899;42.644;23.366;2022-10-16T22:07:20;46.00;;;30.37;;
9720;SDS011;4899;42.644;23.366;2022-10-16T22:12:10;37.57;;;30.13;;
9720;SDS011;4899;42.644;23.366;2022-10-16T22:16:38;44.67;;;32.33;;
9720;SDS011;4899;42.644;23.366;2022-10-16T22:19:05;67.13;;;45.70;;
